METAR Data
IDs: Format: Raw Decoded Include TAF

Data at: 0647 UTC 23 Feb 2019

PAOH 230556Z AUTO VRB03KT 10SM CLR M03/M11 A3022 RMK AO2 SLP235 T10281111 10000 21033 51034 FZRANO
PAOH 230456Z AUTO VRB04KT 10SM CLR M03/M11 A3019 RMK AO2 SLP225 T10281106 FZRANO
PAOH 230356Z AUTO VRB04KT 10SM CLR M02/M11 A3016 RMK AO2 SLP214 T10171111 FZRANO
PAOH 230256Z AUTO 05007KT 10SM CLR M01/M11 A3012 RMK AO2 SLP201 T10111111 53034 FZRANO
PAOH 230156Z AUTO VRB03KT 10SM CLR M01/M09 A3008 RMK AO2 SLP188 T10111094 FZRANO
PAOH 230056Z AUTO 05004KT 10SM CLR M01/M09 A3005 RMK AO2 SLP178 T10061094 FZRANO
PAOH 222356Z AUTO 08006KT 10SM CLR 00/M10 A3002 RMK AO2 SLP167 60001 T00001100 10017 21022 51022 FZRANO
PAOH 222256Z AUTO 08009KT 10SM CLR 00/M09 A3000 RMK AO2 SLP160 T00001094 FZRANO
PAOH 222156Z AUTO 09010KT 10SM CLR 01/M09 A2998 RMK AO2 SLP153 T00061089 FZRANO
PAOH 222056Z AUTO 12007KT 10SM CLR 01/M08 A2996 RMK AO2 SLP145 P0001 60001 T00061078 51027 FZRANO
PAOH 221956Z AUTO 15004KT 10SM CLR 01/M06 A2993 RMK AO2 SLP136 T00111061 FZRANO
PAOH 221856Z AUTO 09004KT 10SM CLR 00/M05 A2991 RMK AO2 SLP128 T00001050 FZRANO
PAOH 221756Z AUTO 07006KT 10SM FEW040 M02/M03 A2988 RMK AO2 SLP118 T10171033 10000 21033 51040 FZRANO
PAOH 221656Z AUTO 00000KT 10SM BKN042 M03/M04 A2985 RMK AO2 SLP110 T10331039 FZRANO
PAOH 221556Z AUTO 09003KT 10SM SCT036 OVC043 M03/M04 A2981 RMK AO2 SLP094 T10281039 FZRANO
PAOH 221456Z AUTO 09005KT 10SM CLR M02/M03 A2976 RMK AO2 SLP078 T10221033 51037 FZRANO
PAOH 221356Z AUTO 00000KT 10SM CLR M01/M03 A2973 RMK AO2 SLP067 T10111033 FZRANO
PAOH 221256Z AUTO VRB05KT 10SM CLR M01/M03 A2969 RMK AO2 SLP054 T10061033 FZRANO
PAOH 221156Z AUTO 00000KT 10SM OVC055 00/M02 A2965 RMK AO2 SLP041 60002 70024 T00001017 10006 20000 51036 FZRANO
PAOH 221056Z AUTO VRB04KT 10SM SCT050 OVC060 00/M01 A2962 RMK AO2 UPB49E56SNE49 SLP030 P0000 T00001011 FZRANO
PAOH 221036Z AUTO VRB05KT 7SM -SN FEW018 SCT030 OVC050 00/00 A2960 RMK AO2 P0000 FZRANO
PAOH 220956Z AUTO 00000KT 3SM -SN BR SCT005 BKN015 OVC044 00/00 A2958 RMK AO2 UPE11SNB11 SLP016 P0001 T00000000 FZRANO
PAOH 220945Z AUTO 00000KT 3SM -SN BR SCT005 OVC015 00/00 A2957 RMK AO2 UPE11SNB11 P0001 FZRANO
PAOH 220937Z AUTO 00000KT 4SM -SN BR BKN005 OVC015 00/00 A2957 RMK AO2 UPE11SNB11 CIG 003V008 P0001 FZRANO
PAOH 220928Z AUTO 00000KT 5SM -SN BR SCT005 OVC015 00/00 A2956 RMK AO2 UPE11SNB11 P0001 FZRANO
PAOH 220924Z AUTO 00000KT 4SM -SN BR BKN005 BKN009 OVC015 00/00 A2956 RMK AO2 UPE11SNB11 CIG 003V007 P0001 FZRANO
PAOH 220913Z AUTO 00000KT 6SM -SN BR FEW003 BKN009 OVC015 00/00 A2955 RMK AO2 UPE11SNB11 CIG 007V012 P0000 FZRANO
PAOH 220904Z AUTO 00000KT 10SM UP FEW004 BKN013 OVC019 00/00 A2955 RMK AO2 P0000 FZRANO
PAOH 220856Z AUTO 00000KT 10SM UP BKN015 OVC019 00/00 A2954 RMK AO2 RAE0757UPB0757SNB24E36 SLP005 P0000 60001 T00000000 53028 FZRANO
PAOH 220820Z AUTO 00000KT 4SM UP BR FEW008 OVC015 01/00 A2952 RMK AO2 RAE0757UPB0757 P0000 FZRANO
PAOH 220756Z AUTO 00000KT 8SM -RA OVC013 01/00 A2951 RMK AO2 RAE01B48 SLP994 P0000 T00060000 400221011 FZRANO
PAOH 220704Z AUTO 00000KT 10SM OVC011 01/00 A2949 RMK AO2 RAE01 P0000 FZRANO
PAOH 220656Z AUTO 09003KT 10SM -RA OVC009 01/00 A2948 RMK AO2 RAB20E33B50UPB33E50 CIG 008V013 SLP985 P0001 T00060000 FZRANO
PAOH 220618Z AUTO 09005KT 10SM BKN007 BKN010 OVC017 01/01 A2947 RMK AO2 FZRANO
PAOH 220604Z AUTO 09006KT 10SM BKN012 BKN030 OVC040 01/00 A2946 RMK AO2 FZRANO
PAOH 220556Z AUTO 08005KT 10SM FEW010 BKN030 OVC040 00/00 A2946 RMK AO2 SLP976 60000 T00000000 10022 21011 53022 FZRANO
PAOH 220517Z AUTO 09003KT 3SM BR BKN040 M01/M01 A2944 RMK AO2 FZRANO
PAOH 220504Z AUTO 08003KT 1 3/4SM BR SCT040 M01/M01 A2943 RMK AO2 VIS 3/4V5 FZRANO
PAOH 220456Z AUTO 00000KT 10SM BKN040 M01/M01 A2943 RMK AO2 SLP967 T10111011 FZRANO
PAOH 220356Z AUTO 00000KT 10SM FEW002 OVC034 M01/M01 A2941 RMK AO2 SLP961 T10061011 FZRANO
PAOH 220340Z AUTO 00000KT 3SM BR SCT002 BKN036 M01/M01 A2941 RMK AO2 FZRANO
PAOH 220334Z AUTO 00000KT 2SM BR BKN002 OVC036 M01/M01 A2941 RMK AO2 FZRANO
PAOH 220308Z AUTO 00000KT 4SM BR SCT002 BKN038 M01/M01 A2940 RMK AO2 FZRANO
PAOH 220300Z AUTO 00000KT 2 1/2SM BR SCT002 BKN038 BKN100 00/M01 A2940 RMK AO2 VIS 1 1/4V5 FZRANO
PAOH 220256Z AUTO 00000KT 1 1/2SM BR BKN002 BKN080 BKN100 00/M01 A2939 RMK AO2 SLP955 60000 T00001006 55000 FZRANO
PAOH 220249Z AUTO 07003KT 2 1/2SM BR BKN002 BKN085 OVC100 00/M01 A2939 RMK AO2 FZRANO
PAOH 220219Z AUTO 00000KT 8SM SCT002 OVC095 01/00 A2939 RMK AO2 FZRANO
PAOH 220156Z AUTO 09003KT 10SM FEW012 OVC090 01/01 A2939 RMK AO2 UPE0059RAB0059E43 SLP953 P0000 T00110006 FZRANO
PAOH 220145Z AUTO 00000KT 10SM FEW012 BKN048 OVC085 02/01 A2939 RMK AO2 UPE0059RAB0059E43 P0000 FZRANO
PAOH 220125Z AUTO 00000KT 10SM -RA SCT014 BKN029 OVC045 02/01 A2939 RMK AO2 UPE0059RAB0059 P0000 FZRANO
PAOH 220056Z AUTO 00000KT 10SM UP FEW015 BKN033 OVC046 02/01 A2939 RMK AO2 RAE19UPB48 SLP954 P0000 T00220011 FZRANO
PAOH 212356Z AUTO 09007KT 10SM -RA FEW018 BKN034 OVC045 02/01 A2939 RMK AO2 UPE18B42E47RAB18 SLP954 P0003 60017 T00170006 10022 20017 56027 FZRANO
PAOH 212256Z AUTO 07008KT 6SM UP BR OVC017 02/01 A2942 RMK AO2 UPE14B37RAB14E53 SLP963 P0005 T00170006 FZRANO
PAOH 212156Z AUTO 06007KT 5SM UP BR OVC017 02/01 A2943 RMK AO2 UPE2059B40RAB2059E40 SLP967 P0004 T00170006 FZRANO
PAOH 212056Z AUTO 07011G16KT 8SM UP BKN021 OVC029 02/01 A2948 RMK AO2 RAE53UPB53 SLP982 P0002 60005 T00220006 58055 FZRANO
PAOH 211956Z AUTO 08009KT 10SM -RA FEW011 BKN023 OVC034 02/01 A2954 RMK AO2 SLP004 P0001 T00220006 FZRANO
PAOH 211856Z AUTO 07010KT 10SM -RA BKN030 OVC036 02/01 A2958 RMK AO2 PRESFR SLP018 P0002 T00170006 FZRANO